createdAt,value
2018-08-04T00:01:16.627Z,93.20
2018-08-04T00:03:49.327Z,93.40
2018-08-04T00:06:18.067Z,93.50
2018-08-04T00:08:46.890Z,93.60
2018-08-04T00:11:15.767Z,93.80
2018-08-04T00:13:44.546Z,94.70
2018-08-04T00:16:13.351Z,96.40
2018-08-04T00:18:42.223Z,98.20
2018-08-04T00:21:15.726Z,99.40
2018-08-04T00:23:44.522Z,99.90
2018-08-04T00:26:16.828Z,99.90
2018-08-04T00:28:47.702Z,99.90
2018-08-04T00:31:17.615Z,99.90
2018-08-04T00:33:46.504Z,99.90
2018-08-04T00:36:16.342Z,99.90
2018-08-04T00:38:47.099Z,99.90
2018-08-04T00:41:16.874Z,99.90
2018-08-04T00:43:46.707Z,99.90
2018-08-04T00:46:19.690Z,99.90
2018-08-04T00:48:56.742Z,99.90
2018-08-04T00:51:36.408Z,99.90
2018-08-04T00:54:15.302Z,99.90
2018-08-04T00:56:48.742Z,99.90
2018-08-04T00:59:33.857Z,99.90
2018-08-04T01:02:13.175Z,99.90
2018-08-04T01:04:43.035Z,99.90
2018-08-04T01:07:25.152Z,99.90
2018-08-04T01:10:06.602Z,99.90
2018-08-04T01:12:38.967Z,99.90
2018-08-04T01:15:11.730Z,99.90
2018-08-04T01:17:40.609Z,99.90
2018-08-04T01:20:12.526Z,99.90
2018-08-04T01:22:42.342Z,99.90
2018-08-04T01:25:11.191Z,99.90
2018-08-04T01:27:42.079Z,99.90
2018-08-04T01:30:11.030Z,99.90
2018-08-04T01:32:39.906Z,99.90
2018-08-04T01:35:08.734Z,99.90
2018-08-04T01:37:38.570Z,99.90
2018-08-04T01:40:07.499Z,99.90
2018-08-04T01:42:39.654Z,99.90
2018-08-04T01:45:11.027Z,99.90
2018-08-04T01:47:39.830Z,99.90
2018-08-04T01:50:12.051Z,99.90
2018-08-04T01:52:40.951Z,99.90
2018-08-04T01:55:11.207Z,99.90
2018-08-04T01:57:40.178Z,99.90
2018-08-04T02:00:09.399Z,99.90
2018-08-04T02:02:41.774Z,99.90
2018-08-04T02:05:14.611Z,99.90
2018-08-04T02:07:46.783Z,99.90
2018-08-04T02:10:15.730Z,99.90
2018-08-04T02:12:45.581Z,99.90
2018-08-04T02:15:14.494Z,99.90
2018-08-04T02:17:46.930Z,99.90
2018-08-04T02:20:17.898Z,99.90
2018-08-04T02:22:46.808Z,99.90
2018-08-04T02:25:16.722Z,99.90
2018-08-04T02:27:45.599Z,99.90
2018-08-04T02:30:14.483Z,99.90
2018-08-04T02:32:43.363Z,99.90
2018-08-04T02:35:14.126Z,99.90
2018-08-04T02:37:42.986Z,99.90
2018-08-04T02:40:11.898Z,99.90
2018-08-04T02:42:40.869Z,99.90
2018-08-04T02:45:10.818Z,99.90
2018-08-04T02:47:39.750Z,99.90
2018-08-04T02:50:09.282Z,99.90
2018-08-04T02:52:40.130Z,99.90
2018-08-04T02:55:09.621Z,99.90
2018-08-04T02:57:38.498Z,99.90
2018-08-04T03:00:07.486Z,99.90
2018-08-04T03:05:06.650Z,99.90
2018-08-04T03:07:35.535Z,99.90
2018-08-04T03:10:10.250Z,99.90
2018-08-04T03:12:39.134Z,99.90
2018-08-04T03:15:08.127Z,99.90
2018-08-04T03:17:38.068Z,99.90
2018-08-04T03:20:08.438Z,99.90
2018-08-04T03:22:37.593Z,99.90
2018-08-04T03:25:08.566Z,99.90
2018-08-04T03:27:41.098Z,99.90
2018-08-04T03:30:11.967Z,99.90
2018-08-04T03:32:41.810Z,99.90
2018-08-04T03:35:10.834Z,99.90
2018-08-04T03:37:40.750Z,99.90
2018-08-04T03:40:10.730Z,99.90
2018-08-04T03:42:40.067Z,99.90
2018-08-04T03:45:10.016Z,99.90
2018-08-04T03:47:38.845Z,99.90
2018-08-04T03:50:11.238Z,99.90
2018-08-04T03:52:40.245Z,99.90
2018-08-04T03:55:09.045Z,99.90
2018-08-04T03:57:37.945Z,99.90
2018-08-04T04:00:07.370Z,99.90
2018-08-04T04:05:04.718Z,99.90
2018-08-04T04:07:35.622Z,99.90
2018-08-04T04:10:05.489Z,99.90
2018-08-04T04:12:34.287Z,99.90
2018-08-04T04:15:03.129Z,99.90
2018-08-04T04:17:43.922Z,99.90
2018-08-04T04:20:13.918Z,99.90
2018-08-04T04:22:43.795Z,99.90
2018-08-04T04:25:12.862Z,99.90
2018-08-04T04:27:41.918Z,99.90
2018-08-04T04:30:10.854Z,99.90
2018-08-04T04:32:40.630Z,99.90
2018-08-04T04:35:13.158Z,99.90
2018-08-04T04:37:42.666Z,99.90
2018-08-04T04:40:15.242Z,99.90
2018-08-04T04:42:45.038Z,99.90
2018-08-04T04:45:14.341Z,99.90
2018-08-04T04:47:43.232Z,99.90
2018-08-04T04:50:12.218Z,99.90
2018-08-04T04:52:41.138Z,99.90
2018-08-04T04:55:12.022Z,99.90
2018-08-04T05:00:09.330Z,99.90
2018-08-04T05:02:41.778Z,99.90
2018-08-04T05:05:10.699Z,99.90
2018-08-04T05:07:40.646Z,99.90
2018-08-04T05:10:09.511Z,99.90
2018-08-04T05:12:43.216Z,99.90
2018-08-04T05:15:12.094Z,99.90
2018-08-04T05:17:42.834Z,99.90
2018-08-04T05:20:11.754Z,99.90
2018-08-04T05:22:40.567Z,99.90
2018-08-04T05:25:13.082Z,99.90
2018-08-04T05:27:43.942Z,99.90
2018-08-04T05:30:12.802Z,99.90
2018-08-04T05:32:41.707Z,99.90
2018-08-04T05:35:11.619Z,99.90
2018-08-04T05:37:42.302Z,99.90
2018-08-04T05:40:12.214Z,99.90
2018-08-04T05:42:41.042Z,99.90
2018-08-04T05:45:11.914Z,99.90
2018-08-04T05:47:40.690Z,99.90
2018-08-04T05:50:10.588Z,99.90
2018-08-04T05:52:40.402Z,99.90
2018-08-04T05:55:09.271Z,99.90
2018-08-04T05:57:38.234Z,99.90
2018-08-04T06:00:08.335Z,99.90
2018-08-04T06:02:37.145Z,99.90
2018-08-04T06:05:06.512Z,99.90
2018-08-04T06:07:35.350Z,99.90
2018-08-04T06:10:04.574Z,99.90
2018-08-04T06:12:34.714Z,99.90
2018-08-04T06:15:04.642Z,99.90
2018-08-04T06:17:34.519Z,99.90
2018-08-04T06:20:04.475Z,99.90
2018-08-04T06:22:36.523Z,99.90
2018-08-04T06:25:05.538Z,99.90
2018-08-04T06:27:34.302Z,99.90
2018-08-04T06:30:03.083Z,99.80
2018-08-04T06:32:33.918Z,96.30
2018-08-04T06:35:04.732Z,93.70
2018-08-04T06:37:33.718Z,89.00
2018-08-04T06:40:02.598Z,82.90
2018-08-04T06:42:32.375Z,78.00
2018-08-04T06:45:01.216Z,71.80
2018-08-04T06:47:30.107Z,67.40
2018-08-04T06:49:59.019Z,63.60
2018-08-04T06:52:27.882Z,61.50
2018-08-04T06:54:56.782Z,60.20
2018-08-04T06:57:26.566Z,58.90
2018-08-04T06:59:55.350Z,59.10
2018-08-04T07:02:24.126Z,59.10
2018-08-04T07:04:52.922Z,58.20
2018-08-04T07:07:22.781Z,58.90
2018-08-04T07:09:51.637Z,59.10
2018-08-04T07:12:21.521Z,59.10
2018-08-04T07:14:50.326Z,59.50
2018-08-04T07:17:19.106Z,60.50
2018-08-04T07:19:48.930Z,60.40
2018-08-04T07:22:17.734Z,58.80
2018-08-04T07:24:47.482Z,58.60
2018-08-04T07:27:16.370Z,61.00
2018-08-04T07:29:45.314Z,62.00
2018-08-04T07:32:14.298Z,62.70
2018-08-04T07:34:43.218Z,63.00
2018-08-04T07:37:12.998Z,63.60
2018-08-04T07:42:13.906Z,64.40
2018-08-04T07:44:42.750Z,63.50
2018-08-04T07:47:16.426Z,65.90
2018-08-04T07:49:52.953Z,68.30
2018-08-04T07:52:22.926Z,72.30
2018-08-04T07:55:03.600Z,80.10
2018-08-04T07:57:33.630Z,82.50
2018-08-04T08:00:04.246Z,84.60
2018-08-04T08:02:33.734Z,86.90
2018-08-04T08:05:06.701Z,90.40
2018-08-04T08:07:41.084Z,89.60
2018-08-04T08:10:13.370Z,92.50
2018-08-04T08:12:47.829Z,99.90
2018-08-04T08:15:16.905Z,99.90
2018-08-04T08:17:45.730Z,99.90
2018-08-04T08:20:14.554Z,99.90
2018-08-04T08:22:46.890Z,99.90
2018-08-04T08:25:16.557Z,99.90
2018-08-04T08:27:50.682Z,99.90
2018-08-04T08:30:19.740Z,99.90
2018-08-04T08:32:49.546Z,99.90
2018-08-04T08:35:19.758Z,99.90
2018-08-04T08:37:50.588Z,99.90
2018-08-04T08:40:20.377Z,99.90
2018-08-04T08:42:52.210Z,99.90
2018-08-04T08:45:38.067Z,98.80
2018-08-04T08:48:06.954Z,94.80
2018-08-04T08:50:36.690Z,94.60
2018-08-04T08:53:06.599Z,92.20
2018-08-04T08:55:37.374Z,89.40
2018-08-04T08:58:07.182Z,87.00
2018-08-04T09:00:35.922Z,81.40
2018-08-04T09:03:07.286Z,77.90
2018-08-04T09:05:41.258Z,73.80
2018-08-04T09:08:15.262Z,67.60
2018-08-04T09:10:51.438Z,69.60
2018-08-04T09:13:26.082Z,68.70
2018-08-04T09:16:00.582Z,66.60
2018-08-04T09:18:29.338Z,67.40
2018-08-04T09:21:10.442Z,66.00
2018-08-04T09:23:39.345Z,64.10
2018-08-04T09:26:08.221Z,60.90
2018-08-04T09:28:40.550Z,60.30
2018-08-04T09:31:09.358Z,59.80
2018-08-04T09:33:48.601Z,59.30
2018-08-04T09:36:17.469Z,57.50
2018-08-04T09:38:46.411Z,55.40
2018-08-04T09:41:16.282Z,55.20
2018-08-04T09:43:45.117Z,53.80
2018-08-04T09:46:13.973Z,49.10
2018-08-04T09:48:46.410Z,46.00
2018-08-04T09:51:15.249Z,43.60
2018-08-04T09:53:44.266Z,43.40
2018-08-04T09:56:14.157Z,42.90
2018-08-04T09:58:47.110Z,42.70
2018-08-04T10:01:21.398Z,44.40
2018-08-04T10:03:51.284Z,43.60
2018-08-04T10:06:20.438Z,44.10
2018-08-04T10:08:49.294Z,40.80
2018-08-04T10:11:18.143Z,40.10
2018-08-04T10:13:47.982Z,39.10
2018-08-04T10:16:16.874Z,38.60
2018-08-04T10:18:51.454Z,37.80
2018-08-04T10:21:21.334Z,37.10
2018-08-04T10:23:50.198Z,37.10
2018-08-04T10:26:19.060Z,35.70
2018-08-04T10:28:51.458Z,35.50
2018-08-04T10:31:20.362Z,35.00
2018-08-04T10:33:49.190Z,33.90
2018-08-04T10:36:17.997Z,32.70
2018-08-04T10:38:50.881Z,32.10
2018-08-04T10:43:48.278Z,30.90
2018-08-04T10:46:17.157Z,29.90
2018-08-04T10:48:46.942Z,28.70
2018-08-04T10:51:15.730Z,27.80
2018-08-04T10:56:15.018Z,27.00
2018-08-04T10:58:43.881Z,28.00
2018-08-04T11:01:12.778Z,29.00
2018-08-04T11:03:43.608Z,29.10
2018-08-04T11:06:12.438Z,29.00
2018-08-04T11:08:43.395Z,30.10
2018-08-04T11:11:12.194Z,29.70
2018-08-04T11:18:39.062Z,29.70
2018-08-04T11:21:11.334Z,30.10
2018-08-04T11:23:42.237Z,29.60
2018-08-04T11:26:11.026Z,29.50
2018-08-04T11:28:46.538Z,29.50
2018-08-04T11:31:15.390Z,28.50
2018-08-04T11:33:50.351Z,27.10
2018-08-04T11:36:20.210Z,27.30
2018-08-04T11:38:52.670Z,27.60
2018-08-04T11:41:24.529Z,26.40
2018-08-04T11:43:55.445Z,26.30
2018-08-04T11:46:25.297Z,26.50
2018-08-04T11:48:54.080Z,27.40
2018-08-04T11:51:22.925Z,27.20
2018-08-04T11:53:51.854Z,27.00
2018-08-04T11:56:21.581Z,26.50
2018-08-04T11:58:51.713Z,26.40
2018-08-04T12:01:20.489Z,26.10
2018-08-04T12:03:54.721Z,26.00
2018-08-04T12:06:24.525Z,25.90
2018-08-04T12:08:53.289Z,26.10
2018-08-04T12:11:24.062Z,26.10
2018-08-04T12:13:56.637Z,26.40
2018-08-04T12:16:29.473Z,26.30
2018-08-04T12:18:59.293Z,25.40
2018-08-04T12:21:30.169Z,25.10
2018-08-04T12:23:59.963Z,25.40
2018-08-04T12:26:33.876Z,24.90
2018-08-04T12:29:04.705Z,24.70
2018-08-04T12:31:35.537Z,24.20
2018-08-04T12:34:08.829Z,25.00
2018-08-04T12:36:39.609Z,25.80
2018-08-04T12:39:09.478Z,26.20
2018-08-04T12:41:39.141Z,26.00
2018-08-04T12:44:09.399Z,25.50
2018-08-04T12:46:44.155Z,25.30
2018-08-04T12:51:54.749Z,26.90
2018-08-04T12:54:30.252Z,27.60
2018-08-04T12:56:59.161Z,27.60
2018-08-04T12:59:37.996Z,28.90
2018-08-04T13:02:06.765Z,30.00
2018-08-04T13:04:37.477Z,31.80
2018-08-04T13:07:06.337Z,33.60
2018-08-04T13:09:35.109Z,34.70
2018-08-04T13:12:04.004Z,35.20
2018-08-04T13:14:32.721Z,35.10
2018-08-04T13:17:01.457Z,34.50
2018-08-04T13:21:59.765Z,35.70
2018-08-04T13:26:56.969Z,36.60
2018-08-04T13:29:25.775Z,36.80
2018-08-04T13:31:54.497Z,37.00
2018-08-04T13:34:23.281Z,36.90
2018-08-04T13:36:52.119Z,35.60
2018-08-04T13:39:24.113Z,34.70
2018-08-04T13:41:57.046Z,35.30
2018-08-04T13:44:37.722Z,34.80
2018-08-04T13:47:06.897Z,34.90
2018-08-04T13:49:35.633Z,36.20
2018-08-04T13:52:07.517Z,37.10
2018-08-04T13:54:36.290Z,37.60
2018-08-04T13:57:05.141Z,38.30
2018-08-04T13:59:34.217Z,38.40
2018-08-04T14:02:03.077Z,38.00
2018-08-04T14:04:34.757Z,38.50
2018-08-04T14:07:08.829Z,38.30
2018-08-04T14:09:38.721Z,38.30
2018-08-04T14:12:08.518Z,38.50
2018-08-04T14:14:37.253Z,39.00
2018-08-04T14:17:07.137Z,39.90
2018-08-04T14:19:42.649Z,41.40
2018-08-04T14:22:12.605Z,41.60
2018-08-04T14:24:45.110Z,41.50
2018-08-04T14:27:14.062Z,41.70
2018-08-04T14:29:44.921Z,42.80
2018-08-04T14:32:14.805Z,43.10
2018-08-04T14:34:43.646Z,43.20
2018-08-04T14:37:14.469Z,44.40
2018-08-04T14:39:46.661Z,44.00
2018-08-04T14:42:15.479Z,44.30
2018-08-04T14:44:45.267Z,45.60
2018-08-04T14:47:17.749Z,47.20
2018-08-04T14:49:46.598Z,50.30
2018-08-04T14:52:20.609Z,57.30
2018-08-04T14:54:54.500Z,66.20
2018-08-04T14:57:30.726Z,90.00
2018-08-04T15:00:00.517Z,92.20
2018-08-04T15:02:29.317Z,98.80
2018-08-04T15:04:58.187Z,99.80
2018-08-04T15:07:34.209Z,99.90
2018-08-04T15:10:03.035Z,99.90
2018-08-04T15:12:31.793Z,99.30
2018-08-04T15:15:05.365Z,96.40
2018-08-04T15:17:35.217Z,91.60
2018-08-04T15:20:04.341Z,76.20
2018-08-04T15:22:33.193Z,61.60
2018-08-04T15:25:02.401Z,56.60
2018-08-04T15:27:32.901Z,50.40
2018-08-04T15:30:01.771Z,43.30
2018-08-04T15:32:32.528Z,39.40
2018-08-04T15:35:02.265Z,37.70
2018-08-04T15:37:34.736Z,38.20
2018-08-04T15:40:03.548Z,39.40
2018-08-04T15:42:35.483Z,40.90
2018-08-04T15:45:06.100Z,43.10
2018-08-04T15:47:38.581Z,45.00
2018-08-04T15:50:09.428Z,45.90
2018-08-04T15:52:43.748Z,47.60
2018-08-04T15:55:19.069Z,48.30
2018-08-04T16:00:18.337Z,49.50
2018-08-04T16:02:47.189Z,50.00
2018-08-04T16:05:15.982Z,49.10
2018-08-04T16:07:44.749Z,45.90
2018-08-04T16:10:13.569Z,43.40
2018-08-04T16:12:44.388Z,41.00
2018-08-04T16:15:13.182Z,41.10
2018-08-04T16:17:42.898Z,41.00
2018-08-04T16:20:15.398Z,41.10
2018-08-04T16:22:44.341Z,41.20
2018-08-04T16:25:14.029Z,41.90
2018-08-04T16:27:43.132Z,42.80
2018-08-04T16:30:12.945Z,43.50
2018-08-04T16:32:43.860Z,45.00
2018-08-04T16:35:13.573Z,50.20
2018-08-04T16:37:42.288Z,59.30
2018-08-04T16:40:11.076Z,61.10
2018-08-04T16:42:39.860Z,62.30
2018-08-04T16:45:08.589Z,64.60
2018-08-04T16:47:37.348Z,66.50
2018-08-04T16:50:10.528Z,66.60
2018-08-04T16:52:39.300Z,65.70
2018-08-04T16:55:13.209Z,62.80
2018-08-04T16:57:42.001Z,61.30
2018-08-04T17:00:14.184Z,59.00
2018-08-04T17:02:42.988Z,58.70
2018-08-04T17:05:12.944Z,58.00
2018-08-04T17:07:41.777Z,56.40
2018-08-04T17:10:13.677Z,54.70
2018-08-04T17:12:42.569Z,53.20
2018-08-04T17:15:11.457Z,53.60
2018-08-04T17:17:40.205Z,53.90
2018-08-04T17:20:12.201Z,53.50
2018-08-04T17:22:41.073Z,52.30
2018-08-04T17:25:09.853Z,51.60
2018-08-04T17:27:38.676Z,49.50
2018-08-04T17:30:07.517Z,49.10
2018-08-04T17:32:40.981Z,48.00
2018-08-04T17:35:09.796Z,47.70
2018-08-04T17:37:40.590Z,47.40
2018-08-04T17:40:09.317Z,46.90
2018-08-04T17:42:44.026Z,47.00
2018-08-04T17:45:14.817Z,48.10
2018-08-04T17:47:43.561Z,48.60
2018-08-04T17:50:13.297Z,49.30
2018-08-04T17:52:42.157Z,50.00
2018-08-04T17:55:12.937Z,50.10
2018-08-04T17:57:41.804Z,49.80
2018-08-04T18:00:14.180Z,49.70
2018-08-04T18:02:42.972Z,49.70
2018-08-04T18:05:13.773Z,49.70
2018-08-04T18:07:47.074Z,50.10
2018-08-04T18:10:17.808Z,50.40
2018-08-04T18:12:52.400Z,51.00
2018-08-04T18:15:21.253Z,51.80
2018-08-04T18:17:55.844Z,52.20
2018-08-04T18:20:34.528Z,52.80
2018-08-04T18:23:03.380Z,53.40
2018-08-04T18:25:32.144Z,55.20
2018-08-04T18:28:01.089Z,56.20
2018-08-04T18:30:30.864Z,57.00
2018-08-04T18:32:59.600Z,58.10
2018-08-04T18:35:28.488Z,59.00
2018-08-04T18:37:59.306Z,60.70
2018-08-04T18:40:29.008Z,62.10
2018-08-04T18:45:30.697Z,64.70
2018-08-04T18:50:32.540Z,68.00
2018-08-04T18:53:01.331Z,69.80
2018-08-04T18:55:30.096Z,71.60
2018-08-04T18:57:58.896Z,72.40
2018-08-04T19:00:28.704Z,75.90
2018-08-04T19:05:26.920Z,83.80
2018-08-04T19:07:56.740Z,87.60
2018-08-04T19:12:57.193Z,91.50
2018-08-04T19:17:55.480Z,95.80
2018-08-04T19:20:25.245Z,97.00
2018-08-04T19:22:55.064Z,96.80
2018-08-04T19:25:26.948Z,97.00
2018-08-04T19:27:55.785Z,98.10
2018-08-04T19:30:25.544Z,99.90
2018-08-04T19:32:54.357Z,99.90
2018-08-04T19:35:28.652Z,99.90
2018-08-04T19:38:12.104Z,99.90
2018-08-04T19:40:40.868Z,99.90
2018-08-04T19:43:09.653Z,99.90
2018-08-04T19:45:41.493Z,99.90
2018-08-04T19:48:11.354Z,99.90
2018-08-04T19:50:40.109Z,99.90
2018-08-04T19:53:08.924Z,99.90
2018-08-04T19:55:38.693Z,99.90
2018-08-04T19:58:07.521Z,99.90
2018-08-04T20:00:36.284Z,99.90
2018-08-04T20:03:05.265Z,99.90
2018-08-04T20:05:34.044Z,99.90
2018-08-04T20:08:07.491Z,99.90
2018-08-04T20:10:38.301Z,99.90
2018-08-04T20:13:07.072Z,99.90
2018-08-04T20:18:05.332Z,99.90
2018-08-04T20:20:35.092Z,99.90
2018-08-04T20:23:03.984Z,99.90
2018-08-04T20:25:33.801Z,99.90
2018-08-04T20:28:02.596Z,99.90
2018-08-04T20:30:31.408Z,99.90
2018-08-04T20:33:00.325Z,99.90
2018-08-04T20:35:30.085Z,99.90
2018-08-04T20:40:27.352Z,99.90
2018-08-04T20:42:59.676Z,99.90
2018-08-04T20:45:28.604Z,99.90
2018-08-04T20:47:58.352Z,99.90
2018-08-04T20:50:27.235Z,99.90
2018-08-04T20:52:56.223Z,99.90
2018-08-04T20:55:24.988Z,99.90
2018-08-04T20:57:55.854Z,99.90
2018-08-04T21:00:42.912Z,99.90
2018-08-04T21:03:13.080Z,99.90
2018-08-04T21:05:41.875Z,99.90
2018-08-04T21:08:10.792Z,99.90
2018-08-04T21:10:39.692Z,99.90
2018-08-04T21:13:09.079Z,99.90
2018-08-04T21:15:39.032Z,99.90
2018-08-04T21:18:10.036Z,99.90
2018-08-04T21:20:57.476Z,99.90
2018-08-04T21:23:26.524Z,99.90
2018-08-04T21:25:56.424Z,99.90
2018-08-04T21:28:26.388Z,99.90
2018-08-04T21:30:55.448Z,99.90
2018-08-04T21:35:57.338Z,99.90
2018-08-04T21:41:01.280Z,99.90
2018-08-04T21:43:35.632Z,99.90
2018-08-04T21:46:04.464Z,99.90
2018-08-04T21:48:35.376Z,99.90
2018-08-04T21:51:06.349Z,99.90
2018-08-04T21:53:36.472Z,99.90
2018-08-04T21:56:05.500Z,99.90
2018-08-04T21:58:38.200Z,99.90
2018-08-04T22:01:12.117Z,99.90
2018-08-04T22:03:42.436Z,99.90
2018-08-04T22:06:11.659Z,99.90
2018-08-04T22:08:56.096Z,99.90
2018-08-04T22:11:25.980Z,99.90
2018-08-04T22:13:55.952Z,99.90
2018-08-04T22:16:26.804Z,99.90
2018-08-04T22:18:55.879Z,99.90
2018-08-04T22:21:24.832Z,99.90
2018-08-04T22:23:54.712Z,99.90
2018-08-04T22:26:28.092Z,99.90
2018-08-04T22:28:57.059Z,99.90
2018-08-04T22:31:26.912Z,99.90
2018-08-04T22:33:55.824Z,99.90
2018-08-04T22:36:27.968Z,99.90
2018-08-04T22:38:58.787Z,99.90
2018-08-04T22:41:31.420Z,99.90
2018-08-04T22:44:04.252Z,99.90
2018-08-04T22:46:33.212Z,99.90
2018-08-04T22:49:03.053Z,99.90
2018-08-04T22:51:32.884Z,99.90
2018-08-04T22:54:01.876Z,99.90
2018-08-04T22:56:30.775Z,99.90
2018-08-04T22:59:01.721Z,99.90
2018-08-04T23:01:32.538Z,99.90
2018-08-04T23:04:02.360Z,99.90
2018-08-04T23:06:36.568Z,99.90
2018-08-04T23:09:07.695Z,99.90
2018-08-04T23:11:36.625Z,99.90
2018-08-04T23:14:07.523Z,99.90
2018-08-04T23:16:36.463Z,99.90
2018-08-04T23:19:06.451Z,99.90
2018-08-04T23:21:35.664Z,99.90
2018-08-04T23:24:05.653Z,99.90
2018-08-04T23:26:35.383Z,99.90
2018-08-04T23:29:08.243Z,99.90
2018-08-04T23:31:37.156Z,99.90
2018-08-04T23:34:06.576Z,99.90
2018-08-04T23:39:01.828Z,99.90
2018-08-04T23:41:31.681Z,99.90
2018-08-04T23:44:03.925Z,99.90
2018-08-04T23:46:34.744Z,99.90
2018-08-04T23:54:02.697Z,99.90
2018-08-04T23:56:33.532Z,99.90
2018-08-04T23:59:02.392Z,99.90
